createdAt,value
2023-04-15T00:00:08.601Z,5.38
2023-04-15T00:00:20.635Z,5.38
2023-04-15T00:00:33.975Z,5.37
2023-04-15T00:00:46.045Z,5.38
2023-04-15T00:00:59.767Z,5.43
2023-04-15T00:01:12.082Z,5.44
2023-04-15T00:01:24.797Z,5.45
2023-04-15T00:01:37.250Z,5.49
2023-04-15T00:01:49.351Z,5.49
2023-04-15T00:02:01.454Z,5.52
2023-04-15T00:02:18.723Z,5.57
2023-04-15T00:02:31.205Z,5.60
2023-04-15T00:02:44.207Z,5.65
2023-04-15T00:02:56.443Z,5.66
2023-04-15T00:03:08.900Z,5.68
2023-04-15T00:03:21.264Z,5.70
2023-04-15T00:03:34.546Z,5.70
2023-04-15T00:03:50.592Z,5.75
2023-04-15T00:04:02.775Z,5.74
2023-04-15T00:04:14.875Z,5.78
2023-04-15T00:04:28.042Z,5.78
2023-04-15T00:04:40.066Z,5.79
2023-04-15T00:04:52.169Z,5.76
2023-04-15T00:05:05.991Z,5.77
2023-04-15T00:05:17.954Z,5.80
2023-04-15T00:05:30.595Z,5.83
2023-04-15T00:05:43.238Z,5.79
2023-04-15T00:05:55.311Z,5.84
2023-04-15T00:06:07.622Z,5.78
2023-04-15T00:06:20.482Z,5.78
2023-04-15T00:06:32.536Z,5.76
2023-04-15T00:06:53.187Z,5.71
2023-04-15T00:07:05.149Z,5.70
2023-04-15T00:07:18.007Z,5.70
2023-04-15T00:07:29.994Z,5.72
2023-04-15T00:07:42.025Z,5.73
2023-04-15T00:07:54.633Z,5.71
2023-04-15T00:08:06.570Z,5.74
2023-04-15T00:08:18.495Z,5.72
2023-04-15T00:08:30.955Z,5.72
2023-04-15T00:08:43.486Z,5.67
2023-04-15T00:08:55.795Z,5.66
2023-04-15T00:09:07.895Z,5.68
2023-04-15T00:09:21.113Z,5.67
2023-04-15T00:09:33.046Z,5.63
2023-04-15T00:09:45.034Z,5.62
2023-04-15T00:09:57.808Z,5.61
2023-04-15T00:10:09.883Z,5.58
2023-04-15T00:10:21.950Z,5.55
2023-04-15T00:10:34.016Z,5.57
2023-04-15T00:10:46.688Z,5.57
2023-04-15T00:11:02.695Z,5.58
2023-04-15T00:11:15.114Z,5.57
2023-04-15T00:11:27.022Z,5.57
2023-04-15T00:11:38.923Z,5.56
2023-04-15T00:11:51.184Z,5.59
2023-04-15T00:12:03.527Z,5.60
2023-04-15T00:12:15.475Z,5.63
2023-04-15T00:12:28.183Z,5.61
2023-04-15T00:12:41.126Z,5.65
2023-04-15T00:12:53.286Z,5.66
2023-04-15T00:13:05.203Z,5.63
2023-04-15T00:13:20.253Z,5.65
2023-04-15T00:13:35.131Z,5.66
2023-04-15T00:13:47.036Z,5.67
2023-04-15T00:13:59.299Z,5.69
2023-04-15T00:14:11.380Z,5.66
2023-04-15T00:14:23.331Z,5.67
2023-04-15T00:14:38.671Z,5.69
2023-04-15T00:14:51.125Z,5.70
2023-04-15T00:15:03.414Z,5.69
2023-04-15T00:15:15.368Z,5.71
2023-04-15T00:15:27.378Z,5.74
2023-04-15T00:15:39.348Z,5.75
2023-04-15T00:15:52.160Z,5.78
2023-04-15T00:16:04.371Z,5.83
2023-04-15T00:16:16.367Z,5.83
2023-04-15T00:16:28.349Z,5.83
2023-04-15T00:16:40.666Z,5.85
2023-04-15T00:16:56.119Z,5.85
2023-04-15T00:17:08.525Z,5.87
2023-04-15T00:17:43.021Z,5.90
2023-04-15T00:17:55.073Z,5.96
2023-04-15T00:18:08.004Z,5.98
2023-04-15T00:18:19.972Z,5.99
2023-04-15T00:18:32.643Z,5.99
2023-04-15T00:18:44.557Z,5.98
2023-04-15T00:18:56.879Z,5.97
2023-04-15T00:19:08.862Z,5.98
2023-04-15T00:19:20.852Z,5.99
2023-04-15T00:19:33.240Z,5.98
2023-04-15T00:19:45.913Z,6.00
2023-04-15T00:19:59.828Z,6.00
2023-04-15T00:20:11.974Z,6.03
2023-04-15T00:20:23.997Z,6.03
2023-04-15T00:20:35.964Z,6.05
2023-04-15T00:20:47.911Z,6.07
2023-04-15T00:21:00.160Z,6.09
2023-04-15T00:21:12.397Z,6.10
2023-04-15T00:21:24.323Z,6.12
2023-04-15T00:21:36.392Z,6.13
2023-04-15T00:21:48.264Z,6.15
2023-04-15T00:22:00.686Z,6.16
2023-04-15T00:22:13.124Z,6.16
2023-04-15T00:22:25.131Z,6.18
2023-04-15T00:22:37.120Z,6.17
2023-04-15T00:22:49.058Z,6.18
2023-04-15T00:23:02.601Z,6.20
2023-04-15T00:23:14.584Z,6.19
2023-04-15T00:23:26.667Z,6.17
2023-04-15T00:23:38.708Z,6.16
2023-04-15T00:23:53.638Z,6.19
2023-04-15T00:24:05.699Z,6.18
2023-04-15T00:24:17.801Z,6.16
2023-04-15T00:24:31.319Z,6.13
2023-04-15T00:24:43.299Z,6.14
2023-04-15T00:24:55.233Z,6.17
2023-04-15T00:25:07.461Z,6.20
2023-04-15T00:25:19.373Z,6.21
2023-04-15T00:25:31.567Z,6.25
2023-04-15T00:25:43.660Z,6.27
2023-04-15T00:25:55.627Z,6.28
2023-04-15T00:26:07.709Z,6.27
2023-04-15T00:26:19.732Z,6.29
2023-04-15T00:26:31.989Z,6.29
2023-04-15T00:26:43.878Z,6.20
2023-04-15T00:26:55.782Z,6.13
2023-04-15T00:27:07.688Z,6.12
2023-04-15T00:27:20.360Z,6.10
2023-04-15T00:27:32.366Z,6.04
2023-04-15T00:27:44.299Z,6.05
2023-04-15T00:27:56.231Z,6.02
2023-04-15T00:28:08.590Z,6.04
2023-04-15T00:28:20.938Z,6.04
2023-04-15T00:28:33.567Z,6.07
2023-04-15T00:28:45.439Z,6.08
2023-04-15T00:28:58.223Z,6.10
2023-04-15T00:29:10.500Z,6.12
2023-04-15T00:29:22.467Z,6.13
2023-04-15T00:29:34.832Z,6.12
2023-04-15T00:29:46.852Z,6.14
2023-04-15T00:29:58.730Z,6.15
2023-04-15T00:30:11.730Z,6.14
2023-04-15T00:30:24.059Z,6.15
2023-04-15T00:30:36.043Z,6.13
2023-04-15T00:30:47.997Z,6.12
2023-04-15T00:30:59.968Z,6.11
2023-04-15T00:31:12.134Z,6.10
2023-04-15T00:31:24.156Z,6.10
2023-04-15T00:31:36.538Z,6.11
2023-04-15T00:31:48.518Z,6.11
2023-04-15T00:32:00.417Z,6.08
2023-04-15T00:32:12.332Z,6.05
2023-04-15T00:32:24.275Z,6.05
2023-04-15T00:32:36.188Z,6.06
2023-04-15T00:32:48.954Z,6.07
2023-04-15T00:33:02.334Z,6.08
2023-04-15T00:33:16.420Z,6.07
2023-04-15T00:33:28.381Z,6.08
2023-04-15T00:33:40.504Z,6.07
2023-04-15T00:33:52.396Z,6.06
2023-04-15T00:34:04.694Z,6.06
2023-04-15T00:34:16.763Z,6.09
2023-04-15T00:34:28.938Z,6.08
2023-04-15T00:34:40.962Z,6.08
2023-04-15T00:34:52.935Z,6.09
2023-04-15T00:35:05.235Z,6.10
2023-04-15T00:35:17.317Z,6.09
2023-04-15T00:35:32.486Z,6.11
2023-04-15T00:35:44.614Z,6.13
2023-04-15T00:35:56.630Z,6.12
2023-04-15T00:36:08.743Z,6.12
2023-04-15T00:36:20.690Z,6.12
2023-04-15T00:36:33.889Z,6.12
2023-04-15T00:36:46.192Z,6.14
2023-04-15T00:36:58.355Z,6.15
2023-04-15T00:37:10.689Z,6.13
2023-04-15T00:37:23.003Z,6.14
2023-04-15T00:37:35.334Z,6.15
2023-04-15T00:37:47.311Z,6.16
2023-04-15T00:37:59.723Z,6.16
2023-04-15T00:38:11.684Z,6.18
2023-04-15T00:38:23.882Z,6.17
2023-04-15T00:38:39.207Z,6.16
2023-04-15T00:38:51.107Z,6.13
2023-04-15T00:39:03.378Z,6.13
2023-04-15T00:39:16.327Z,6.13
2023-04-15T00:39:28.308Z,6.12
2023-04-15T00:39:40.760Z,6.10
2023-04-15T00:39:52.680Z,6.12
2023-04-15T00:40:07.816Z,6.13
2023-04-15T00:40:21.415Z,6.16
2023-04-15T00:40:33.333Z,6.14
2023-04-15T00:40:45.788Z,6.13
2023-04-15T00:40:57.921Z,6.13
2023-04-15T00:41:10.922Z,6.13
2023-04-15T00:41:23.225Z,6.13
2023-04-15T00:41:35.154Z,6.11
2023-04-15T00:41:47.470Z,6.12
2023-04-15T00:41:59.515Z,6.14
2023-04-15T00:42:11.962Z,6.16
2023-04-15T00:42:24.852Z,6.14
2023-04-15T00:42:37.235Z,6.15
2023-04-15T00:42:49.181Z,6.14
2023-04-15T00:43:01.671Z,6.16
2023-04-15T00:43:13.698Z,6.14
2023-04-15T00:43:26.524Z,6.15
2023-04-15T00:43:38.480Z,6.16
2023-04-15T00:43:50.446Z,6.17
2023-04-15T00:44:02.452Z,6.17
2023-04-15T00:44:14.582Z,6.19
2023-04-15T00:44:26.691Z,6.18
2023-04-15T00:44:38.581Z,6.17
2023-04-15T00:44:50.448Z,6.17
2023-04-15T00:45:02.426Z,6.20
2023-04-15T00:45:14.457Z,6.20
2023-04-15T00:45:28.049Z,6.20
2023-04-15T00:45:39.958Z,6.21
2023-04-15T00:45:54.405Z,6.21
2023-04-15T00:46:07.512Z,6.21
2023-04-15T00:46:22.951Z,6.22
2023-04-15T00:46:39.199Z,6.22
2023-04-15T00:46:51.769Z,6.24
2023-04-15T00:47:05.424Z,6.20
2023-04-15T00:47:18.833Z,6.21
2023-04-15T00:47:33.432Z,6.23
2023-04-15T00:47:45.787Z,6.23
2023-04-15T00:47:58.551Z,6.23
2023-04-15T00:48:11.445Z,6.21
2023-04-15T00:48:23.689Z,6.20
2023-04-15T00:48:38.873Z,6.20
2023-04-15T00:48:51.782Z,6.20
2023-04-15T00:49:07.388Z,6.21
2023-04-15T00:49:19.324Z,6.23
2023-04-15T00:49:32.168Z,6.22
2023-04-15T00:49:44.163Z,6.23
2023-04-15T00:49:56.046Z,6.23
2023-04-15T00:50:08.871Z,6.24
2023-04-15T00:50:20.807Z,6.24
2023-04-15T00:50:33.232Z,6.26
2023-04-15T00:50:45.241Z,6.27
2023-04-15T00:50:57.494Z,6.27
2023-04-15T00:51:09.725Z,6.28
2023-04-15T00:51:21.652Z,6.29
2023-04-15T00:51:36.850Z,6.29
2023-04-15T00:51:49.079Z,6.27
2023-04-15T00:52:00.996Z,6.27
2023-04-15T00:52:13.183Z,6.22
2023-04-15T00:52:25.107Z,6.24
2023-04-15T00:52:37.239Z,6.25
2023-04-15T00:52:49.182Z,6.25
2023-04-15T00:53:01.246Z,6.25
2023-04-15T00:53:13.178Z,6.27
2023-04-15T00:53:25.098Z,6.27
2023-04-15T00:53:38.545Z,6.26
2023-04-15T00:53:51.880Z,6.29
2023-04-15T00:54:04.928Z,6.29
2023-04-15T00:54:17.174Z,6.28
2023-04-15T00:54:29.153Z,6.29
2023-04-15T00:54:41.268Z,6.27
2023-04-15T00:54:53.613Z,6.29
2023-04-15T00:55:06.658Z,6.26
2023-04-15T00:55:19.204Z,6.27
2023-04-15T00:55:31.479Z,6.26
2023-04-15T00:55:43.440Z,6.26
2023-04-15T00:55:56.037Z,6.25
2023-04-15T00:56:08.090Z,6.26
2023-04-15T00:56:24.277Z,6.23
2023-04-15T00:56:38.132Z,6.23
2023-04-15T00:56:50.080Z,6.22
2023-04-15T00:57:02.030Z,6.21
2023-04-15T00:57:13.952Z,6.21
2023-04-15T00:57:27.098Z,6.21
2023-04-15T00:57:40.539Z,6.19
2023-04-15T00:57:52.625Z,6.21
2023-04-15T00:58:04.830Z,6.22
2023-04-15T00:58:17.197Z,6.24
2023-04-15T00:58:29.199Z,6.20
2023-04-15T00:58:51.651Z,6.18
2023-04-15T00:59:04.473Z,6.16
2023-04-15T00:59:17.690Z,6.19
2023-04-15T00:59:31.508Z,6.18
2023-04-15T00:59:43.446Z,6.21
2023-04-15T00:59:56.746Z,6.20
2023-04-15T01:00:09.696Z,6.18
2023-04-15T01:00:21.780Z,6.21
2023-04-15T01:00:34.554Z,6.22
2023-04-15T01:00:46.828Z,6.16
2023-04-15T01:00:59.874Z,6.19
2023-04-15T01:01:11.809Z,6.20
2023-04-15T01:01:24.967Z,6.21
2023-04-15T01:01:38.325Z,6.23
2023-04-15T01:01:50.481Z,6.22
2023-04-15T01:02:02.506Z,6.23
2023-04-15T01:02:15.195Z,6.26
2023-04-15T01:02:27.506Z,6.25
2023-04-15T01:02:39.681Z,6.26
2023-04-15T01:02:51.865Z,6.24
2023-04-15T01:03:04.071Z,6.27
2023-04-15T01:03:16.273Z,6.25
2023-04-15T01:03:30.001Z,6.23
2023-04-15T01:03:42.573Z,6.21
2023-04-15T01:03:58.794Z,6.22
2023-04-15T01:04:12.341Z,6.21
2023-04-15T01:04:25.203Z,6.22
2023-04-15T01:04:37.591Z,6.23
2023-04-15T01:04:49.842Z,6.23
2023-04-15T01:05:02.277Z,6.23
2023-04-15T01:05:17.271Z,6.21
2023-04-15T01:05:30.352Z,6.19
2023-04-15T01:05:42.276Z,6.17
2023-04-15T01:05:58.221Z,6.17
2023-04-15T01:06:10.842Z,6.20
2023-04-15T01:06:22.747Z,6.21
2023-04-15T01:06:34.665Z,6.21
2023-04-15T01:06:47.157Z,6.19
2023-04-15T01:06:59.084Z,6.18
2023-04-15T01:07:11.013Z,6.18
2023-04-15T01:07:22.962Z,6.18
2023-04-15T01:07:34.953Z,6.15
2023-04-15T01:07:47.931Z,6.14
2023-04-15T01:08:00.212Z,6.11
2023-04-15T01:08:12.393Z,6.10
2023-04-15T01:08:28.211Z,6.10
2023-04-15T01:08:40.681Z,6.11
2023-04-15T01:08:56.429Z,6.13
2023-04-15T01:09:08.384Z,6.13
2023-04-15T01:09:20.645Z,6.15
2023-04-15T01:09:33.289Z,6.13
2023-04-15T01:09:45.653Z,6.13
2023-04-15T01:09:58.027Z,6.11
2023-04-15T01:10:10.165Z,6.10
2023-04-15T01:10:22.138Z,6.09
2023-04-15T01:10:34.118Z,6.09
2023-04-15T01:10:46.505Z,6.10
2023-04-15T01:11:02.129Z,6.10
2023-04-15T01:11:15.360Z,6.11
2023-04-15T01:11:27.999Z,6.12
2023-04-15T01:11:39.952Z,6.12
2023-04-15T01:11:52.426Z,6.14
2023-04-15T01:12:05.777Z,6.13
2023-04-15T01:12:20.436Z,6.13
2023-04-15T01:12:34.219Z,6.14
2023-04-15T01:12:46.190Z,6.12
2023-04-15T01:12:58.148Z,6.10
2023-04-15T01:13:10.038Z,6.06
2023-04-15T01:13:23.951Z,6.07
2023-04-15T01:13:36.679Z,6.08
2023-04-15T01:13:48.625Z,6.07
2023-04-15T01:14:03.660Z,6.07
2023-04-15T01:14:16.113Z,6.08
2023-04-15T01:14:29.017Z,6.08
2023-04-15T01:14:41.121Z,6.09
2023-04-15T01:14:54.289Z,6.09
2023-04-15T01:15:07.985Z,6.08
2023-04-15T01:15:20.442Z,6.08
2023-04-15T01:15:32.567Z,6.08
2023-04-15T01:15:45.076Z,6.08
2023-04-15T01:15:57.686Z,6.09
2023-04-15T01:16:10.619Z,6.10
2023-04-15T01:16:23.051Z,6.11
2023-04-15T01:16:36.805Z,6.12
2023-04-15T01:16:48.759Z,6.12
2023-04-15T01:17:00.761Z,6.11
2023-04-15T01:17:13.269Z,6.09
2023-04-15T01:17:25.624Z,6.10
2023-04-15T01:17:38.114Z,6.09
2023-04-15T01:17:50.144Z,6.09
2023-04-15T01:18:03.192Z,6.09
2023-04-15T01:18:15.832Z,6.08
2023-04-15T01:18:27.954Z,6.10
2023-04-15T01:18:39.975Z,6.12
2023-04-15T01:18:52.194Z,6.12
2023-04-15T01:19:06.319Z,6.09
2023-04-15T01:19:18.471Z,6.09
2023-04-15T01:19:31.200Z,6.08
2023-04-15T01:19:43.263Z,6.06
2023-04-15T01:19:57.769Z,6.08
2023-04-15T01:20:12.504Z,6.06
2023-04-15T01:20:24.556Z,6.05
2023-04-15T01:20:36.956Z,6.05
2023-04-15T01:20:48.944Z,6.06
2023-04-15T01:21:02.502Z,6.06
2023-04-15T01:21:14.696Z,6.01
2023-04-15T01:21:26.916Z,5.97
2023-04-15T01:21:39.748Z,6.00
2023-04-15T01:21:52.558Z,6.00
2023-04-15T01:22:05.479Z,6.04
2023-04-15T01:22:17.700Z,6.05
2023-04-15T01:22:29.615Z,6.05
2023-04-15T01:22:41.587Z,6.07
2023-04-15T01:22:54.862Z,6.08
2023-04-15T01:23:07.312Z,6.07
2023-04-15T01:23:19.763Z,6.08
2023-04-15T01:23:32.670Z,6.09
2023-04-15T01:23:47.666Z,6.08
2023-04-15T01:23:59.639Z,6.07
2023-04-15T01:24:16.347Z,6.07
2023-04-15T01:24:30.260Z,5.98
2023-04-15T01:24:52.189Z,5.95
2023-04-15T01:25:18.318Z,5.90
2023-04-15T01:25:34.717Z,5.88
2023-04-15T01:25:47.460Z,5.89
2023-04-15T01:25:59.745Z,5.86
2023-04-15T01:26:12.005Z,5.88
2023-04-15T01:26:24.085Z,5.87
2023-04-15T01:26:38.544Z,5.88
2023-04-15T01:26:50.463Z,5.89
2023-04-15T01:27:02.470Z,5.89
2023-04-15T01:27:14.848Z,5.89
2023-04-15T01:27:26.955Z,5.89
2023-04-15T01:27:42.427Z,5.91
2023-04-15T01:27:54.421Z,5.91
2023-04-15T01:28:06.351Z,5.90
2023-04-15T01:28:18.289Z,5.79
2023-04-15T01:28:30.685Z,5.74
2023-04-15T01:28:42.609Z,5.69
2023-04-15T01:28:54.756Z,5.67
2023-04-15T01:29:06.780Z,5.64
2023-04-15T01:29:22.464Z,5.65
2023-04-15T01:29:38.568Z,5.66
2023-04-15T01:29:50.492Z,5.70
2023-04-15T01:30:05.230Z,5.72
2023-04-15T01:30:17.514Z,5.74
2023-04-15T01:30:29.819Z,5.75
2023-04-15T01:30:41.762Z,5.73
2023-04-15T01:31:13.977Z,5.71
2023-04-15T01:31:25.996Z,5.70
2023-04-15T01:31:38.519Z,5.70
2023-04-15T01:31:55.920Z,5.68
2023-04-15T01:32:07.908Z,5.70
2023-04-15T01:32:20.313Z,5.72
2023-04-15T01:32:32.373Z,5.70
2023-04-15T01:32:44.412Z,5.70
2023-04-15T01:32:56.588Z,5.72
2023-04-15T01:33:08.551Z,5.72
2023-04-15T01:33:20.474Z,5.71
2023-04-15T01:33:32.369Z,5.74
2023-04-15T01:33:44.327Z,5.69
2023-04-15T01:33:56.421Z,5.68
2023-04-15T01:34:08.339Z,5.71
2023-04-15T01:34:20.858Z,5.72
2023-04-15T01:34:35.532Z,5.68
2023-04-15T01:34:47.700Z,5.68
2023-04-15T01:34:59.864Z,5.71
2023-04-15T01:35:11.829Z,5.71
2023-04-15T01:35:24.001Z,5.73
2023-04-15T01:35:36.281Z,5.74
2023-04-15T01:35:48.255Z,5.75
2023-04-15T01:36:00.424Z,5.76
2023-04-15T01:36:12.300Z,5.77
2023-04-15T01:36:24.284Z,5.77
2023-04-15T01:36:36.704Z,5.80
2023-04-15T01:36:48.600Z,5.79
2023-04-15T01:37:00.580Z,5.81
2023-04-15T01:37:12.463Z,5.80
2023-04-15T01:37:25.203Z,5.79
2023-04-15T01:37:37.909Z,5.75
2023-04-15T01:37:49.937Z,5.77
2023-04-15T01:38:09.519Z,5.75
2023-04-15T01:38:21.680Z,5.74
2023-04-15T01:38:33.711Z,5.75
2023-04-15T01:38:46.104Z,5.74
2023-04-15T01:38:58.523Z,5.74
2023-04-15T01:39:10.920Z,5.76
2023-04-15T01:39:27.056Z,5.72
2023-04-15T01:39:39.433Z,5.73
2023-04-15T01:39:51.623Z,5.74
2023-04-15T01:40:03.760Z,5.69
2023-04-15T01:40:16.552Z,5.70
2023-04-15T01:40:28.459Z,5.67
2023-04-15T01:40:40.819Z,5.67
2023-04-15T01:40:53.300Z,5.65
2023-04-15T01:41:07.465Z,5.63
2023-04-15T01:41:25.306Z,5.66
2023-04-15T01:41:37.278Z,5.59
2023-04-15T01:41:49.183Z,5.58
2023-04-15T01:42:01.198Z,5.60
2023-04-15T01:42:13.094Z,5.60
2023-04-15T01:42:25.121Z,5.59
2023-04-15T01:42:37.549Z,5.63
2023-04-15T01:42:49.460Z,5.62
2023-04-15T01:43:02.219Z,5.57
2023-04-15T01:43:15.316Z,5.58
2023-04-15T01:43:28.154Z,5.57
2023-04-15T01:43:40.076Z,5.57
2023-04-15T01:43:52.506Z,5.57
2023-04-15T01:44:04.495Z,5.53
2023-04-15T01:44:16.808Z,5.56
2023-04-15T01:44:33.611Z,5.56
2023-04-15T01:44:45.539Z,5.54
2023-04-15T01:44:57.420Z,5.53
2023-04-15T01:45:09.866Z,5.48
2023-04-15T01:45:21.854Z,5.49
2023-04-15T01:45:33.816Z,5.43
2023-04-15T01:45:45.841Z,5.45
2023-04-15T01:45:57.745Z,5.42
2023-04-15T01:46:09.712Z,5.40
2023-04-15T01:46:22.691Z,5.46
2023-04-15T01:46:35.787Z,5.49
2023-04-15T01:46:48.357Z,5.51
2023-04-15T01:47:00.672Z,5.51
2023-04-15T01:47:12.614Z,5.46
2023-04-15T01:47:24.514Z,5.51
2023-04-15T01:47:36.443Z,5.49
2023-04-15T01:47:49.321Z,5.50
2023-04-15T01:48:01.334Z,5.53
2023-04-15T01:48:13.306Z,5.53
2023-04-15T01:48:25.509Z,5.53
2023-04-15T01:48:37.431Z,5.50
2023-04-15T01:48:49.432Z,5.49
2023-04-15T01:49:01.802Z,5.49
2023-04-15T01:49:13.959Z,5.53
2023-04-15T01:49:25.888Z,5.51
2023-04-15T01:49:40.027Z,5.52
2023-04-15T01:49:51.961Z,5.49
2023-04-15T01:50:04.152Z,5.52
2023-04-15T01:50:16.392Z,5.53
2023-04-15T01:50:28.268Z,5.52
2023-04-15T01:50:40.225Z,5.55
2023-04-15T01:50:53.365Z,5.58
2023-04-15T01:51:05.612Z,5.62
2023-04-15T01:51:17.906Z,5.64
2023-04-15T01:51:29.799Z,5.66
2023-04-15T01:51:41.792Z,5.65
2023-04-15T01:51:54.220Z,5.67
2023-04-15T01:52:06.380Z,5.69
2023-04-15T01:52:18.424Z,5.70
2023-04-15T01:52:30.467Z,5.70
2023-04-15T01:52:42.456Z,5.70
2023-04-15T01:52:54.335Z,5.72
2023-04-15T01:53:06.251Z,5.71
2023-04-15T01:53:18.603Z,5.70
2023-04-15T01:53:30.536Z,5.68
2023-04-15T01:53:42.525Z,5.66
2023-04-15T01:53:56.821Z,5.64
2023-04-15T01:54:08.793Z,5.64
2023-04-15T01:54:20.692Z,5.57
2023-04-15T01:54:32.621Z,5.54
2023-04-15T01:54:50.563Z,5.48
2023-04-15T01:55:02.553Z,5.49
2023-04-15T01:55:14.508Z,5.50
2023-04-15T01:55:27.040Z,5.50
2023-04-15T01:55:39.181Z,5.50
2023-04-15T01:55:52.162Z,5.49
2023-04-15T01:56:09.866Z,5.51
2023-04-15T01:56:26.637Z,5.48
2023-04-15T01:56:47.014Z,5.49
2023-04-15T01:57:06.043Z,5.50
2023-04-15T01:57:24.572Z,5.50
2023-04-15T01:57:42.390Z,5.50
2023-04-15T01:57:54.381Z,5.49
2023-04-15T01:58:08.986Z,5.45
2023-04-15T01:58:23.563Z,5.44
2023-04-15T01:58:35.803Z,5.40
2023-04-15T01:59:11.207Z,5.43
2023-04-15T01:59:34.214Z,5.43
2023-04-15T01:59:48.866Z,5.42
2023-04-15T02:00:01.004Z,5.43
2023-04-15T02:00:13.196Z,5.40
2023-04-15T02:00:25.116Z,5.38
2023-04-15T02:00:37.163Z,5.42
2023-04-15T02:00:49.152Z,5.43
2023-04-15T02:01:01.830Z,5.41
2023-04-15T02:01:14.591Z,5.42
2023-04-15T02:01:27.363Z,5.41
2023-04-15T02:01:39.674Z,5.36
2023-04-15T02:01:52.332Z,5.35
2023-04-15T02:02:05.389Z,5.39
2023-04-15T02:02:17.804Z,5.41
2023-04-15T02:02:29.793Z,5.43
2023-04-15T02:02:42.070Z,5.42
2023-04-15T02:02:54.177Z,5.42
2023-04-15T02:03:06.671Z,5.46
2023-04-15T02:03:18.857Z,5.46
2023-04-15T02:03:30.951Z,5.44
2023-04-15T02:03:43.447Z,5.44
2023-04-15T02:03:55.424Z,5.46
2023-04-15T02:04:08.211Z,5.45
2023-04-15T02:04:20.437Z,5.45
2023-04-15T02:04:32.599Z,5.46
2023-04-15T02:04:44.789Z,5.46
2023-04-15T02:04:56.689Z,5.49
2023-04-15T02:05:08.776Z,5.47
2023-04-15T02:05:20.747Z,5.45
2023-04-15T02:05:32.738Z,5.46
2023-04-15T02:05:44.680Z,5.45
2023-04-15T02:05:56.741Z,5.47
2023-04-15T02:06:08.693Z,5.48
2023-04-15T02:06:20.954Z,5.49
2023-04-15T02:06:33.242Z,5.48
2023-04-15T02:06:45.262Z,5.47
2023-04-15T02:06:57.180Z,5.47
2023-04-15T02:07:09.101Z,5.45
2023-04-15T02:07:21.032Z,5.45
2023-04-15T02:07:32.907Z,5.47
2023-04-15T02:07:45.607Z,5.48
2023-04-15T02:07:57.841Z,5.49
2023-04-15T02:08:09.868Z,5.50
2023-04-15T02:08:21.782Z,5.47
2023-04-15T02:08:33.710Z,5.48
2023-04-15T02:08:45.585Z,5.47
2023-04-15T02:08:59.147Z,5.47
2023-04-15T02:09:11.295Z,5.48
2023-04-15T02:09:23.220Z,5.50
2023-04-15T02:09:35.117Z,5.47
2023-04-15T02:09:47.608Z,5.45
2023-04-15T02:09:59.558Z,5.44
2023-04-15T02:10:17.092Z,5.47
2023-04-15T02:10:29.168Z,5.49
2023-04-15T02:10:41.064Z,5.51
2023-04-15T02:10:53.007Z,5.52
2023-04-15T02:11:05.079Z,5.55
2023-04-15T02:11:16.976Z,5.54
2023-04-15T02:11:28.967Z,5.57
2023-04-15T02:11:40.954Z,5.60
2023-04-15T02:11:54.217Z,5.62
2023-04-15T02:12:06.237Z,5.63
2023-04-15T02:12:18.157Z,5.65
2023-04-15T02:12:30.489Z,5.65
2023-04-15T02:12:42.751Z,5.65
2023-04-15T02:12:54.678Z,5.67
2023-04-15T02:13:06.685Z,5.66
2023-04-15T02:13:19.227Z,5.66
2023-04-15T02:13:31.092Z,5.67
2023-04-15T02:13:43.132Z,5.66
2023-04-15T02:13:55.082Z,5.65
2023-04-15T02:14:07.053Z,5.64
2023-04-15T02:14:19.032Z,5.60
2023-04-15T02:14:31.600Z,5.59
2023-04-15T02:14:43.520Z,5.59
2023-04-15T02:14:55.839Z,5.58
2023-04-15T02:15:08.856Z,5.56
2023-04-15T02:15:23.655Z,5.52
2023-04-15T02:15:35.685Z,5.51
2023-04-15T02:15:48.883Z,5.49
2023-04-15T02:16:00.957Z,5.45
2023-04-15T02:16:19.694Z,5.45
2023-04-15T02:16:32.685Z,5.44
2023-04-15T02:16:44.713Z,5.44
2023-04-15T02:16:56.755Z,5.44
2023-04-15T02:17:08.717Z,5.44
2023-04-15T02:17:20.744Z,5.45
2023-04-15T02:17:39.136Z,5.45
2023-04-15T02:17:52.466Z,5.46
2023-04-15T02:18:04.565Z,5.45
2023-04-15T02:18:16.827Z,5.46
2023-04-15T02:18:28.774Z,5.44
2023-04-15T02:18:40.714Z,5.40
2023-04-15T02:18:52.708Z,5.36
2023-04-15T02:19:04.627Z,5.34
2023-04-15T02:19:16.560Z,5.36
2023-04-15T02:19:28.420Z,5.33
2023-04-15T02:19:41.141Z,5.30
2023-04-15T02:19:53.141Z,5.23
2023-04-15T02:20:08.806Z,5.15
2023-04-15T02:20:21.373Z,5.11
2023-04-15T02:20:45.431Z,5.05
2023-04-15T02:20:58.423Z,5.00
2023-04-15T02:21:10.506Z,5.00
2023-04-15T02:21:22.589Z,4.97
2023-04-15T02:21:35.353Z,4.99
2023-04-15T02:21:47.229Z,5.00
2023-04-15T02:22:00.083Z,5.00
2023-04-15T02:22:18.131Z,5.01
2023-04-15T02:22:30.310Z,5.00
2023-04-15T02:22:42.229Z,4.97
2023-04-15T02:22:54.114Z,4.92
2023-04-15T02:23:07.399Z,4.94
2023-04-15T02:23:19.368Z,4.94
2023-04-15T02:23:31.306Z,4.94
2023-04-15T02:23:44.004Z,4.96
2023-04-15T02:23:56.347Z,4.89
2023-04-15T02:24:08.275Z,4.91
2023-04-15T02:24:20.223Z,4.84
2023-04-15T02:24:32.205Z,4.84
2023-04-15T02:24:45.882Z,4.76
2023-04-15T02:24:57.851Z,4.78
2023-04-15T02:25:10.262Z,4.76
2023-04-15T02:25:22.266Z,4.74
2023-04-15T02:25:34.200Z,4.70
2023-04-15T02:25:53.465Z,4.63
2023-04-15T02:26:06.644Z,4.58
2023-04-15T02:26:18.720Z,4.47
2023-04-15T02:26:32.655Z,4.45
2023-04-15T02:26:44.622Z,4.40
2023-04-15T02:26:57.275Z,4.34
2023-04-15T02:27:09.197Z,4.34
2023-04-15T02:27:22.448Z,4.30
2023-04-15T02:27:36.041Z,4.23
2023-04-15T02:27:48.112Z,4.22
2023-04-15T02:27:59.995Z,4.21
2023-04-15T02:28:11.921Z,4.19
2023-04-15T02:28:23.850Z,4.16
2023-04-15T02:28:36.205Z,4.15
2023-04-15T02:28:49.059Z,4.10
2023-04-15T02:29:01.267Z,4.10
2023-04-15T02:29:13.323Z,4.09
2023-04-15T02:29:25.472Z,4.10
2023-04-15T02:29:37.434Z,4.14
2023-04-15T02:29:51.267Z,4.17
2023-04-15T02:30:03.961Z,4.24
2023-04-15T02:30:15.964Z,4.27
2023-04-15T02:30:27.933Z,4.30
2023-04-15T02:30:40.980Z,4.34
2023-04-15T02:30:59.883Z,4.37
2023-04-15T02:31:11.871Z,4.42
2023-04-15T02:31:23.840Z,4.46
2023-04-15T02:31:40.367Z,4.47
2023-04-15T02:31:52.489Z,4.53
2023-04-15T02:32:04.801Z,4.56
2023-04-15T02:32:17.190Z,4.56
2023-04-15T02:32:29.374Z,4.59
2023-04-15T02:32:43.734Z,4.62
2023-04-15T02:32:55.980Z,4.62
2023-04-15T02:33:07.930Z,4.64
2023-04-15T02:33:20.189Z,4.67
2023-04-15T02:33:32.443Z,4.68
2023-04-15T02:33:44.392Z,4.71
2023-04-15T02:33:56.274Z,4.70
2023-04-15T02:34:08.240Z,4.65
2023-04-15T02:34:20.231Z,4.66
2023-04-15T02:34:33.599Z,4.64
2023-04-15T02:34:45.520Z,4.57
2023-04-15T02:35:01.953Z,4.56
2023-04-15T02:35:14.160Z,4.51
2023-04-15T02:35:26.664Z,4.51
2023-04-15T02:35:41.988Z,4.52
2023-04-15T02:35:53.923Z,4.52
2023-04-15T02:36:09.432Z,4.47
2023-04-15T02:36:21.573Z,4.45
2023-04-15T02:36:34.638Z,4.40
2023-04-15T02:36:48.605Z,4.40
2023-04-15T02:37:00.520Z,4.36
2023-04-15T02:37:13.627Z,4.33
2023-04-15T02:37:28.623Z,4.29
2023-04-15T02:37:43.238Z,4.31
2023-04-15T02:37:55.336Z,4.30
2023-04-15T02:38:07.290Z,4.31
2023-04-15T02:38:19.222Z,4.26
2023-04-15T02:38:32.001Z,4.28
2023-04-15T02:38:43.967Z,4.28
2023-04-15T02:38:55.836Z,4.26
2023-04-15T02:39:07.764Z,4.28
2023-04-15T02:39:20.023Z,4.27
2023-04-15T02:39:31.917Z,4.24
2023-04-15T02:39:43.890Z,4.19
2023-04-15T02:39:56.141Z,4.11
2023-04-15T02:40:12.244Z,4.07
2023-04-15T02:40:24.193Z,4.04
2023-04-15T02:40:36.131Z,4.00
2023-04-15T02:40:49.694Z,3.96
2023-04-15T02:41:01.676Z,3.94
2023-04-15T02:41:20.314Z,3.96
2023-04-15T02:41:32.399Z,3.92
2023-04-15T02:41:47.519Z,3.85
2023-04-15T02:42:00.649Z,3.85
2023-04-15T02:42:13.296Z,3.88
2023-04-15T02:42:27.615Z,3.88
2023-04-15T02:42:40.701Z,3.91
2023-04-15T02:42:52.623Z,3.89
2023-04-15T02:43:06.614Z,3.84
2023-04-15T02:43:18.625Z,3.85
2023-04-15T02:43:30.509Z,3.86
2023-04-15T02:43:42.383Z,3.84
2023-04-15T02:43:54.774Z,3.80
2023-04-15T02:44:10.830Z,3.72
2023-04-15T02:44:24.840Z,3.67
2023-04-15T02:44:36.817Z,3.56
2023-04-15T02:44:48.731Z,3.56
2023-04-15T02:45:00.679Z,3.62
2023-04-15T02:45:12.908Z,3.63
2023-04-15T02:45:27.481Z,3.67
2023-04-15T02:45:39.425Z,3.73
2023-04-15T02:45:52.162Z,3.73
2023-04-15T02:46:04.152Z,3.73
2023-04-15T02:46:16.782Z,3.70
2023-04-15T02:46:28.742Z,3.76
2023-04-15T02:46:41.196Z,3.78
2023-04-15T02:46:54.846Z,3.69
2023-04-15T02:47:07.361Z,3.53
2023-04-15T02:47:19.263Z,3.37
2023-04-15T02:47:31.230Z,3.34
2023-04-15T02:47:43.923Z,3.34
2023-04-15T02:47:55.932Z,3.41
2023-04-15T02:48:07.840Z,3.42
2023-04-15T02:48:20.571Z,3.31
2023-04-15T02:48:32.536Z,3.25
2023-04-15T02:48:44.464Z,3.13
2023-04-15T02:48:56.343Z,3.04
2023-04-15T02:49:08.573Z,3.06
2023-04-15T02:49:23.829Z,3.14
2023-04-15T02:49:35.847Z,3.26
2023-04-15T02:49:47.721Z,3.34
2023-04-15T02:50:01.673Z,3.40
2023-04-15T02:50:14.058Z,3.30
2023-04-15T02:50:26.127Z,3.37
2023-04-15T02:50:39.866Z,3.43
2023-04-15T02:50:52.020Z,3.50